Oxnard Airport Oxnard US
ICAO: KOXR
IATA: OXR
Category: Medium
Scheduled Services: No

Elevation: 45 ft
TransAlt. 18000 ft.

Airport Communications:
PT MUGU APP/DEP:124.7
ATIS:118.05
CTAF:134.95
GND:121.9
TWR:134.95

KOXR Zoom In..

Runways:

(A) RW 07 length 5953 ft width 100 ft
---- / hdg 76

(B) RW 25 length 5953 ft width 100 ft
ILS 108.70 / hdg 256

Location; KOXR
Day. 24 / Time. 01.51 Zulu
* Altimeter: 30.13
* Temperature: 14° c. 57.2°f.
* Wind from: 280° Speed 07 kn.
Dewpoint: 11° c.
Visibility: 10 Statute Miles.
Clouds: Clear (automated report).

KOXR 240151Z 28007KT 10SM CLR 14/11 A3013 RMK AO2 SLP203 T01390106


Wind From 280°
Speed 07 kn.

YouTube Music Video
 
jpsmedia.com for Web Design  worldairports.se 2018   terms of use